Flight Track Log - Related Links

Times and Time Zones

All times are in EDT time to prevent confusion due to time zone crossing. See the ASQ4905 flight status page for this flight to view local times or setup timezone preferences in your user account.

Time Position Orientation Groundspeed Altitude Reporting Facility
EDT Latitude Longitude Course Direction KTS MPH feet Rate Location/Type
Wed 08:15:56 PM 42.2319 -83.3314 357° North 157 181 1,200  Level Cleveland Center
Wed 08:16:45 PM 42.2714 -83.3342 357° North 193 222 2,600 1,610 Climbing Cleveland Center
Wed 08:17:18 PM 42.2933 -83.3386 351° North 215 247 3,400 2,066 Climbing Cleveland Center
Wed 08:17:46 PM 42.3283 -83.3589 337° Northwest 237 273 4,700 2,613 Climbing Cleveland Center
Wed 08:18:20 PM 42.3422 -83.4056 292° West 249 287 6,100 2,852 Climbing Cleveland Center
Wed 08:18:47 PM 42.3403 -83.4456 266° West 255 293 7,600 3,000 Climbing Cleveland Center
Wed 08:19:22 PM 42.3419 -83.5003 272° West 255 293 9,200 2,149 Climbing Cleveland Center
Wed 08:19:54 PM 42.3419 -83.5586 270° West 282 325 10,000 1,355 Climbing Cleveland Center
Wed 08:20:24 PM 42.3281 -83.5947 243° Southwest 290 334 10,600 1,761 Climbing Cleveland Center
Wed 08:21:26 PM 42.2419 -83.6394 201° Southwest 347 399 12,700 2,064 Climbing Cleveland Center
Wed 08:22:29 PM 42.1225 -83.6725 192° South 369 425 14,900 2,016 Climbing Cleveland Center
Wed 08:23:31 PM 42.0192 -83.7006 191° South 378 435 16,900 1,790 Climbing Cleveland Center
Wed 08:24:33 PM 41.9119 -83.7289 191° South 390 449 18,600 1,500 Climbing Cleveland Center
Wed 08:25:35 PM 41.8150 -83.7853 203° Southwest 399 459 20,000 1,403 Climbing Cleveland Center
Wed 08:26:37 PM 41.7508 -83.8953 232° Southwest 375 432 21,500 1,548 Climbing Cleveland Center
Wed 08:27:39 PM 41.6714 -84.0294 232° Southwest 383 441 23,200 1,403 Climbing Cleveland Center
Wed 08:28:41 PM 41.6031 -84.1450 232° Southwest 392 451 24,400 1,200 Climbing Cleveland Center
Wed 08:29:44 PM 41.5344 -84.2611 232° Southwest 400 460 25,700 1,104 Climbing Cleveland Center
Wed 08:30:46 PM 41.4642 -84.3808 232° Southwest 407 468 26,700 919 Climbing Cleveland Center
Wed 08:31:48 PM 41.3925 -84.5017 232° Southwest 410 472 27,600 807 Climbing Cleveland Center
Wed 08:32:45 PM 41.3172 -84.6261 231° Southwest 428 493 28,300 958 Climbing Chicago Center
Wed 08:33:47 PM 41.2422 -84.7522 232° Southwest 431 496 29,500 1,306 Climbing Chicago Center
Wed 08:34:49 PM 41.1678 -84.8744 231° Southwest 430 495 31,000 1,440 Climbing Chicago Center
Wed 08:35:52 PM 41.0822 -85.0169 231° Southwest 414 476 32,500 1,296 Climbing Chicago Center
Wed 08:36:54 PM 41.0108 -85.1325 231° Southwest 409 471 33,700 1,065 Climbing Chicago Center
Wed 08:37:56 PM 40.9539 -85.2564 239° Southwest 398 458 34,700 968 Climbing Chicago Center
Wed 08:38:58 PM 40.9044 -85.3861 243° Southwest 395 455 35,700 629 Climbing Chicago Center
Wed 08:40:00 PM 40.8544 -85.5125 242° Southwest 391 450 36,000 144 Climbing Chicago Center
Wed 08:41:03 PM 40.8031 -85.6439 243° Southwest 399 459 36,000  Level Chicago Center
Wed 08:42:05 PM 40.7489 -85.7814 243° Southwest 417 480 36,000  Level Chicago Center
Wed 08:43:07 PM 40.6817 -85.9503 242° Southwest 431 496 36,000  Level Chicago Center
Wed 08:44:09 PM 40.6200 -86.1047 242° Southwest 445 512 36,000  Level Chicago Center
Wed 08:45:11 PM 40.5619 -86.2500 242° Southwest 449 517 36,000  Level Chicago Center
Wed 08:46:13 PM 40.5047 -86.3942 242° Southwest 451 519 36,000  Level Chicago Center
Wed 08:47:16 PM 40.4450 -86.5394 242° Southwest 452 520 36,000  Level Chicago Center
Wed 08:48:18 PM 40.3867 -86.6839 242° Southwest 453 521 36,000  Level Chicago Center
Wed 08:49:20 PM 40.3158 -86.8564 242° Southwest 453 521 36,000  Level Chicago Center
Wed 08:50:22 PM 40.2569 -87.0006 242° Southwest 452 520 36,000  Level Chicago Center
Wed 08:51:24 PM 40.1978 -87.1417 241° Southwest 449 517 36,000  Level Chicago Center
Wed 08:52:27 PM 40.1392 -87.2819 241° Southwest 444 511 36,000  Level Chicago Center
Wed 08:53:29 PM 40.0814 -87.4231 242° Southwest 444 511 36,000  Level Chicago Center
Wed 08:54:31 PM 40.0092 -87.5933 241° Southwest 445 512 36,000  Level Chicago Center
Wed 08:55:04 PM 39.9856 -87.6486 241° Southwest 448 516 36,000  Level Indianapolis Center
Wed 08:56:05 PM 39.9136 -87.8172 241° Southwest 448 516 36,000  Level Indianapolis Center
Wed 08:56:35 PM 39.8894 -87.8753 242° Southwest 446 513 36,000  Level Chicago Center
Wed 08:57:07 PM 39.8542 -87.9583 241° Southwest 448 516 36,000  Level Indianapolis Center
Wed 08:58:08 PM 39.7942 -88.1006 241° Southwest 448 516 36,000  Level Indianapolis Center
Wed 08:59:02 PM 39.7428 -88.2192 241° Southwest 447 514 36,000  Level Kansas City Center
Wed 09:00:05 PM 39.6853 -88.3528 241° Southwest 450 518 36,000  Level Kansas City Center
Wed 09:01:06 PM 39.6183 -88.5050 240° Southwest 450 518 36,000  Level Kansas City Center
Wed 09:02:07 PM 39.5469 -88.6678 240° Southwest 454 522 36,000  Level Kansas City Center
Wed 09:03:10 PM 39.4850 -88.8086 240° Southwest 454 522 36,000  Level Kansas City Center
Wed 09:04:11 PM 39.4219 -88.9528 241° Southwest 454 522 36,000  Level Kansas City Center
Wed 09:05:12 PM 39.3639 -89.0822 240° Southwest 454 522 36,000  Level Kansas City Center
Wed 09:06:16 PM 39.2894 -89.2525 241° Southwest 454 522 36,000  Level Kansas City Center
Wed 09:07:17 PM 39.2256 -89.3939 240° Southwest 455 524 36,000  Level Kansas City Center
Wed 09:08:18 PM 39.1669 -89.5292 241° Southwest 455 524 36,000  Level Kansas City Center
Wed 09:09:20 PM 39.1031 -89.6714 240° Southwest 456 525 36,000  Level Kansas City Center
Wed 09:10:21 PM 39.0247 -89.8419 239° Southwest 457 526 36,000  Level Kansas City Center
Wed 09:11:25 PM 38.9603 -89.9847 240° Southwest 458 527 36,000  Level Kansas City Center
Wed 09:12:25 PM 38.8972 -90.1181 239° Southwest 461 531 36,000  Level Kansas City Center
Wed 09:13:26 PM 38.8319 -90.2619 240° Southwest 462 532 36,000  Level Kansas City Center
Wed 09:14:29 PM 38.7694 -90.4050 241° Southwest 469 540 36,000  Level Kansas City Center
Wed 09:15:30 PM 38.6897 -90.5781 239° Southwest 469 540 36,000  Level Kansas City Center
Wed 09:16:31 PM 38.6217 -90.7217 239° Southwest 469 540 36,000  Level Kansas City Center
Wed 09:17:36 PM 38.5533 -90.8669 239° Southwest 477 549 36,000  Level Kansas City Center
Wed 09:18:37 PM 38.4867 -91.0100 239° Southwest 476 548 36,000  Level Kansas City Center
Wed 09:19:38 PM 38.4189 -91.1544 239° Southwest 476 548 36,000  Level Kansas City Center
Wed 09:20:39 PM 38.3508 -91.2986 239° Southwest 476 548 36,000  Level Kansas City Center
Wed 09:21:42 PM 38.2819 -91.4444 239° Southwest 475 547 36,000  Level Kansas City Center
Wed 09:22:42 PM 38.2136 -91.5883 239° Southwest 472 543 36,000  Level Kansas City Center
Wed 09:23:43 PM 38.1278 -91.7650 238° Southwest 486 559 36,000  Level Kansas City Center
Wed 09:24:47 PM 38.0569 -91.9100 238° Southwest 486 559 36,000  Level Kansas City Center
Wed 09:25:48 PM 37.9881 -92.0536 239° Southwest 480 552 36,000  Level Kansas City Center
Wed 09:26:50 PM 37.9222 -92.1933 239° Southwest 482 555 36,000  Level Kansas City Center
Wed 09:27:50 PM 37.8492 -92.3303 236° Southwest 480 552 36,000  Level Kansas City Center
Wed 09:28:54 PM 37.7814 -92.4758 240° Southwest 483 556 36,000  Level Kansas City Center
Wed 09:29:54 PM 37.7136 -92.6181 239° Southwest 480 552 36,000  Level Kansas City Center
Wed 09:30:55 PM 37.6719 -92.7947 253° West 467 537 36,000  Level Kansas City Center
Wed 09:31:57 PM 37.6353 -92.9500 253° West 464 534 36,000  Level Kansas City Center
Wed 09:32:58 PM 37.5989 -93.1061 254° West 464 534 36,000  Level Kansas City Center
Wed 09:34:02 PM 37.5614 -93.2631 253° West 464 534 36,000  Level Kansas City Center
Wed 09:35:03 PM 37.5236 -93.4186 253° West 464 534 36,000  Level Kansas City Center
Wed 09:36:04 PM 37.4778 -93.6056 253° West 464 534 36,000  Level Kansas City Center
Wed 09:37:05 PM 37.4400 -93.7611 253° West 464 534 36,000  Level Kansas City Center
Wed 09:38:06 PM 37.4036 -93.9181 254° West 464 534 36,000  Level Kansas City Center
Wed 09:39:10 PM 37.3642 -94.0725 252° West 464 534 36,000  Level Kansas City Center
Wed 09:40:11 PM 37.3281 -94.2161 252° West 464 534 36,000  Level Kansas City Center
Wed 09:41:11 PM 37.2914 -94.3717 254° West 464 534 36,000  Level Kansas City Center
Wed 09:42:12 PM 37.2456 -94.5578 253° West 464 534 36,000  Level Kansas City Center
Wed 09:43:15 PM 37.2058 -94.7122 252° West 465 535 36,000  Level Kansas City Center
Wed 09:44:15 PM 37.1675 -94.8672 253° West 465 535 36,000  Level Kansas City Center
Wed 09:45:19 PM 37.1281 -95.0203 252° West 465 535 36,000 -384 Level Kansas City Center
Wed 09:46:20 PM 37.0892 -95.1733 252° West 465 535 35,200 -992 Descending Kansas City Center
Wed 09:47:20 PM 37.0508 -95.3269 253° West 464 534 34,000 -581 Descending Kansas City Center
Wed 09:48:24 PM 37.0117 -95.4842 253° West 466 536 34,000  Level Kansas City Center
Wed 09:49:26 PM 36.9642 -95.6706 252° West 469 540 34,000  Level Kansas City Center
Wed 09:50:25 PM 36.9231 -95.8244 252° West 469 540 34,000 -585 Level Kansas City Center
Wed 09:51:29 PM 36.8472 -95.9644 236° Southwest 489 563 32,800 -1,296 Descending Kansas City Center
Wed 09:52:30 PM 36.7450 -96.0831 223° Southwest 500 575 31,300 -1,475 Descending Kansas City Center
Wed 09:53:31 PM 36.6439 -96.1986 223° Southwest 500 575 29,800 -1,463 Descending Kansas City Center
Wed 09:54:33 PM 36.5453 -96.3142 223° Southwest 495 570 28,300 -1,463 Descending Kansas City Center
Wed 09:55:34 PM 36.4472 -96.4250 222° Southwest 484 557 26,800 -1,610 Descending Kansas City Center
Wed 09:56:36 PM 36.3333 -96.5558 223° Southwest 473 544 25,000 -2,195 Descending Kansas City Center
Wed 09:57:37 PM 36.2558 -96.6764 231° Southwest 454 522 22,300 -2,628 Descending Kansas City Center
Wed 09:58:37 PM 36.1803 -96.8017 233° Southwest 450 518 19,700 -2,448 Descending Kansas City Center
Wed 09:59:42 PM 36.0983 -96.9097 227° Southwest 440 506 17,200 -2,429 Descending Kansas City Center
Wed 10:00:43 PM 36.0056 -96.9992 218° Southwest 430 495 14,600 -2,516 Descending Kansas City Center
Wed 10:01:46 PM 35.9192 -97.0844 219° Southwest 406 467 12,000 -2,039 Descending Kansas City Center
Wed 10:02:26 PM 35.8606 -97.1453 220° Southwest 364 419 11,100 -1,726 Descending Fort Worth Center
Wed 10:02:59 PM 35.8203 -97.1828 217° Southwest 288 331 9,900 -2,066 Descending Fort Worth Center
Wed 10:03:27 PM 35.7906 -97.2119 219° Southwest 304 350 9,000 -1,869 Descending Fort Worth Center
Wed 10:04:00 PM 35.7539 -97.2439 215° Southwest 291 335 8,000 -1,742 Descending Fort Worth Center
Wed 10:04:29 PM 35.7250 -97.2733 220° Southwest 297 342 7,200 -1,700 Descending Fort Worth Center
Wed 10:05:00 PM 35.6894 -97.3069 218° Southwest 294 338 6,300 -1,742 Descending Fort Worth Center
Wed 10:05:31 PM 35.6572 -97.3383 218° Southwest 288 331 5,400 -1,592 Descending Fort Worth Center
Wed 10:05:49 PM 35.6442 -97.3511 218° Southwest 277 319 5,000 -1,180 Descending Fort Worth Center
Wed 10:06:32 PM 35.6000 -97.3950 219° Southwest 268 308 4,200 -1,000 Descending Fort Worth Center
Wed 10:06:49 PM 35.5839 -97.4133 223° Southwest 249 287 4,000 -194 Descending Fort Worth Center
Wed 10:07:34 PM 35.5528 -97.4469 221° Southwest 225 259 4,000  Level Fort Worth Center
Wed 10:07:56 PM 35.5372 -97.4653 224° Southwest 204 235 4,000 -393 Level Fort Worth Center
Wed 10:08:35 PM 35.5219 -97.5031 244° Southwest 204 235 3,600 -689 Descending Fort Worth Center
Wed 10:08:57 PM 35.5111 -97.5292 243° Southwest 203 234 3,300 -581 Descending Fort Worth Center
Wed 10:09:37 PM 35.4942 -97.5700 243° Southwest 205 236 3,000 -444 Descending Fort Worth Center
Wed 10:09:51 PM 35.4856 -97.5825 230° Southwest 198 228 2,900 -689 Descending Fort Worth Center
Wed 10:10:38 PM 35.4533 -97.5894 190° South 163 188 2,300 -787 Descending Fort Worth Center
Wed 10:10:52 PM 35.4442 -97.5894 180° South 133 153 2,100 -689 Descending Fort Worth Center
Wed 10:11:39 PM 35.4167 -97.5900 181° South 136 157 1,600 -638 Descending Fort Worth Center
Wed 10:13:00 PM 35.3931 -97.6008 238° Southwest  Level Estimated
Wed 10:20:00 PM 35.3931 -97.6008 238° Southwest  Level Estimated

Login

Don't have an account? Register now (free) for customized features, flight alerts, and more!